createdAt,value
2023-03-08T00:00:10.445Z,1.10
2023-03-08T00:02:37.565Z,1.10
2023-03-08T00:05:05.631Z,1.10
2023-03-08T00:07:33.226Z,1.10
2023-03-08T00:10:00.531Z,1.00
2023-03-08T00:12:29.308Z,1.00
2023-03-08T00:14:56.581Z,1.00
2023-03-08T00:17:26.281Z,1.00
2023-03-08T00:19:54.548Z,0.90
2023-03-08T00:22:27.182Z,1.00
2023-03-08T00:24:54.465Z,1.00
2023-03-08T00:27:21.927Z,1.00
2023-03-08T00:29:49.221Z,1.00
2023-03-08T00:32:17.107Z,1.00
2023-03-08T00:34:47.278Z,1.00
2023-03-08T00:37:15.056Z,0.90
2023-03-08T00:39:42.387Z,1.00
2023-03-08T00:42:09.611Z,0.90
2023-03-08T00:44:43.403Z,0.90
2023-03-08T00:47:10.754Z,0.90
2023-03-08T00:49:38.080Z,0.90
2023-03-08T00:52:05.416Z,0.90
2023-03-08T00:54:32.833Z,0.90
2023-03-08T00:56:59.992Z,0.90
2023-03-08T00:59:27.510Z,0.90
2023-03-08T01:01:54.750Z,0.90
2023-03-08T01:04:22.069Z,0.90
2023-03-08T01:06:52.069Z,0.90
2023-03-08T01:09:19.125Z,0.80
2023-03-08T01:11:46.273Z,0.80
2023-03-08T01:14:13.474Z,0.80
2023-03-08T01:16:41.868Z,0.70
2023-03-08T01:19:09.954Z,0.70
2023-03-08T01:21:37.534Z,0.70
2023-03-08T01:24:07.616Z,0.70
2023-03-08T01:26:35.003Z,0.70
2023-03-08T01:29:02.226Z,0.70
2023-03-08T01:31:30.669Z,0.70
2023-03-08T01:33:58.404Z,0.70
2023-03-08T01:36:27.352Z,0.70
2023-03-08T01:38:54.893Z,0.70
2023-03-08T01:41:31.289Z,0.70
2023-03-08T01:43:58.458Z,0.70
2023-03-08T01:46:29.321Z,0.70
2023-03-08T01:49:15.593Z,0.70
2023-03-08T01:51:56.610Z,0.70
2023-03-08T01:54:31.450Z,0.70
2023-03-08T01:57:06.267Z,0.60
2023-03-08T01:59:34.908Z,0.60
2023-03-08T02:02:03.101Z,0.60
2023-03-08T02:04:30.643Z,0.60
2023-03-08T02:06:57.953Z,0.60
2023-03-08T02:09:25.574Z,0.70
2023-03-08T02:11:53.057Z,0.70
2023-03-08T02:14:20.172Z,0.70
2023-03-08T02:16:47.395Z,0.70
2023-03-08T02:19:45.332Z,0.70
2023-03-08T02:22:15.031Z,0.70
2023-03-08T02:24:42.478Z,0.70
2023-03-08T02:27:21.929Z,0.70
2023-03-08T02:29:49.011Z,0.80
2023-03-08T02:32:18.619Z,0.80
2023-03-08T02:34:45.912Z,0.80
2023-03-08T02:37:13.091Z,0.80
2023-03-08T02:39:40.321Z,0.80
2023-03-08T02:42:07.823Z,0.80
2023-03-08T02:44:35.207Z,0.80
2023-03-08T02:47:02.484Z,0.80
2023-03-08T02:49:29.623Z,0.80
2023-03-08T02:51:56.968Z,0.80
2023-03-08T02:54:24.335Z,0.80
2023-03-08T02:56:51.555Z,0.80
2023-03-08T02:59:18.992Z,0.90
2023-03-08T03:01:46.437Z,0.90
2023-03-08T03:04:14.062Z,0.90
2023-03-08T03:06:41.406Z,0.90
2023-03-08T03:09:09.614Z,0.90
2023-03-08T03:11:37.165Z,0.90
2023-03-08T03:14:29.974Z,0.90
2023-03-08T03:16:57.220Z,0.90
2023-03-08T03:19:24.439Z,0.90
2023-03-08T03:21:51.982Z,0.90
2023-03-08T03:24:19.243Z,0.90
2023-03-08T03:26:46.337Z,0.90
2023-03-08T03:29:13.628Z,0.80
2023-03-08T03:31:40.876Z,0.90
2023-03-08T03:34:08.174Z,0.90
2023-03-08T03:36:35.353Z,0.90
2023-03-08T03:39:03.141Z,0.90
2023-03-08T03:41:30.349Z,0.90
2023-03-08T03:43:58.616Z,1.00
2023-03-08T03:46:26.102Z,0.90
2023-03-08T03:48:53.333Z,1.00
2023-03-08T03:51:22.915Z,1.00
2023-03-08T03:53:50.452Z,1.00
2023-03-08T03:56:26.089Z,1.00
2023-03-08T03:58:54.439Z,1.00
2023-03-08T04:01:27.795Z,1.00
2023-03-08T04:03:55.805Z,1.00
2023-03-08T04:07:03.659Z,1.00
2023-03-08T04:09:30.767Z,1.00
2023-03-08T04:12:02.650Z,1.00
2023-03-08T04:14:29.922Z,1.00
2023-03-08T04:16:57.073Z,1.10
2023-03-08T04:19:24.284Z,1.10
2023-03-08T04:21:51.548Z,1.10
2023-03-08T04:24:18.938Z,1.10
2023-03-08T04:26:46.044Z,1.10
2023-03-08T04:29:13.431Z,1.10
2023-03-08T04:31:40.799Z,1.10
2023-03-08T04:34:07.936Z,1.20
2023-03-08T04:36:35.213Z,1.10
2023-03-08T04:39:02.280Z,1.20
2023-03-08T04:41:30.596Z,1.20
2023-03-08T04:43:58.330Z,1.20
2023-03-08T04:46:27.979Z,1.30
2023-03-08T04:48:56.211Z,1.30
2023-03-08T04:51:27.090Z,1.20
2023-03-08T04:53:54.786Z,1.20
2023-03-08T04:56:22.489Z,1.30
2023-03-08T04:58:49.803Z,1.20
2023-03-08T05:01:23.434Z,1.20
2023-03-08T05:03:51.818Z,1.20
2023-03-08T05:06:20.462Z,1.30
2023-03-08T05:08:47.779Z,1.30
2023-03-08T05:11:19.778Z,1.30
2023-03-08T05:13:47.344Z,1.30
2023-03-08T05:16:14.940Z,1.30
2023-03-08T05:18:42.847Z,1.30
2023-03-08T05:21:19.252Z,1.30
2023-03-08T05:23:47.402Z,1.40
2023-03-08T05:26:17.060Z,1.40
2023-03-08T05:28:44.696Z,1.40
2023-03-08T05:31:20.853Z,1.40
2023-03-08T05:33:52.350Z,1.40
2023-03-08T05:36:20.201Z,1.40
2023-03-08T05:38:48.380Z,1.40
2023-03-08T05:41:17.108Z,1.40
2023-03-08T05:43:44.594Z,1.40
2023-03-08T05:46:17.831Z,1.40
2023-03-08T05:48:45.998Z,1.40
2023-03-08T05:51:18.158Z,1.40
2023-03-08T05:53:46.176Z,1.50
2023-03-08T05:56:23.160Z,1.40
2023-03-08T05:58:51.160Z,1.50
2023-03-08T06:01:21.662Z,1.50
2023-03-08T06:03:54.432Z,1.50
2023-03-08T06:06:23.624Z,1.50
2023-03-08T06:08:50.924Z,1.50
2023-03-08T06:11:19.022Z,1.50
2023-03-08T06:13:46.400Z,1.50
2023-03-08T06:16:13.891Z,1.50
2023-03-08T06:18:42.587Z,1.50
2023-03-08T06:21:17.968Z,1.50
2023-03-08T06:23:46.266Z,1.50
2023-03-08T06:26:14.940Z,1.50
2023-03-08T06:28:42.793Z,1.50
2023-03-08T06:31:14.119Z,1.60
2023-03-08T06:33:41.918Z,1.60
2023-03-08T06:36:14.212Z,1.50
2023-03-08T06:38:42.322Z,1.60
2023-03-08T06:41:11.007Z,1.60
2023-03-08T06:43:38.522Z,1.60
2023-03-08T06:46:07.595Z,1.60
2023-03-08T06:48:36.076Z,1.50
2023-03-08T06:51:04.338Z,1.60
2023-03-08T06:53:32.406Z,1.60
2023-03-08T06:56:03.205Z,1.60
2023-03-08T06:58:31.218Z,1.60
2023-03-08T07:01:00.515Z,1.60
2023-03-08T07:03:28.544Z,1.60
2023-03-08T07:06:00.772Z,1.70
2023-03-08T07:08:28.161Z,1.70
2023-03-08T07:10:55.676Z,1.70
2023-03-08T07:13:23.911Z,1.70
2023-03-08T07:15:52.039Z,1.70
2023-03-08T07:18:20.140Z,1.70
2023-03-08T07:20:52.881Z,1.80
2023-03-08T07:23:20.044Z,1.80
2023-03-08T07:25:47.426Z,1.80
2023-03-08T07:28:14.802Z,1.80
2023-03-08T07:30:46.288Z,1.80
2023-03-08T07:33:13.500Z,1.80
2023-03-08T07:35:40.883Z,1.80
2023-03-08T07:38:08.277Z,1.80
2023-03-08T07:40:35.632Z,1.80
2023-03-08T07:43:02.829Z,1.80
2023-03-08T07:45:30.391Z,1.80
2023-03-08T07:47:58.018Z,1.80
2023-03-08T07:50:25.706Z,1.80
2023-03-08T07:52:52.858Z,1.80
2023-03-08T07:55:21.796Z,1.90
2023-03-08T07:57:48.994Z,1.90
2023-03-08T08:00:16.586Z,2.00
2023-03-08T08:02:43.828Z,2.00
2023-03-08T08:05:11.219Z,2.00
2023-03-08T08:07:38.343Z,2.00
2023-03-08T08:10:06.188Z,2.00
2023-03-08T08:12:34.596Z,2.10
2023-03-08T08:15:01.869Z,2.10
2023-03-08T08:17:29.197Z,2.10
2023-03-08T08:19:56.337Z,2.20
2023-03-08T08:22:23.581Z,2.20
2023-03-08T08:24:50.751Z,2.20
2023-03-08T08:27:17.893Z,2.20
2023-03-08T08:29:49.818Z,2.30
2023-03-08T08:32:17.171Z,2.30
2023-03-08T08:34:44.596Z,2.30
2023-03-08T08:37:12.076Z,2.30
2023-03-08T08:39:40.008Z,2.30
2023-03-08T08:42:07.679Z,2.30
2023-03-08T08:44:34.940Z,2.30
2023-03-08T08:47:02.140Z,2.30
2023-03-08T08:49:29.319Z,2.30
2023-03-08T08:51:59.163Z,2.30
2023-03-08T08:54:26.377Z,2.30
2023-03-08T08:56:53.425Z,2.40
2023-03-08T08:59:20.734Z,2.40
2023-03-08T09:01:51.255Z,2.40
2023-03-08T09:04:20.977Z,2.40
2023-03-08T09:06:48.334Z,2.40
2023-03-08T09:09:16.483Z,2.40
2023-03-08T09:11:54.308Z,2.40
2023-03-08T09:14:22.914Z,2.40
2023-03-08T09:16:50.594Z,2.50
2023-03-08T09:19:18.421Z,2.50
2023-03-08T09:21:45.589Z,2.50
2023-03-08T09:24:13.533Z,2.60
2023-03-08T09:26:40.800Z,2.70
2023-03-08T09:29:08.221Z,2.80
2023-03-08T09:31:37.739Z,2.80
2023-03-08T09:34:09.510Z,2.90
2023-03-08T09:36:40.132Z,3.00
2023-03-08T09:39:09.132Z,3.00
2023-03-08T09:42:00.479Z,3.10
2023-03-08T09:45:12.547Z,3.10
2023-03-08T09:47:52.864Z,3.10
2023-03-08T09:50:39.085Z,3.20
2023-03-08T09:53:18.741Z,3.20
2023-03-08T09:55:54.817Z,3.30
2023-03-08T09:58:33.107Z,3.30
2023-03-08T10:01:25.164Z,3.40
2023-03-08T10:04:04.511Z,3.40
2023-03-08T10:06:42.648Z,3.40
2023-03-08T10:09:29.472Z,3.50
2023-03-08T10:12:15.938Z,3.50
2023-03-08T10:14:49.452Z,3.60
2023-03-08T10:17:23.514Z,3.60
2023-03-08T10:20:00.055Z,3.70
2023-03-08T10:22:30.253Z,3.70
2023-03-08T10:25:15.814Z,3.70
2023-03-08T10:27:42.913Z,3.80
2023-03-08T10:30:19.972Z,3.80
2023-03-08T10:32:51.226Z,3.80
2023-03-08T10:35:30.527Z,3.80
2023-03-08T10:37:57.633Z,3.80
2023-03-08T10:40:25.056Z,3.90
2023-03-08T10:43:01.319Z,3.80
2023-03-08T10:45:30.177Z,3.90
2023-03-08T10:48:06.195Z,3.90
2023-03-08T10:50:36.801Z,3.90
2023-03-08T10:53:20.729Z,4.00
2023-03-08T10:55:51.559Z,4.00
2023-03-08T10:58:39.820Z,4.00
2023-03-08T11:01:33.508Z,4.10
2023-03-08T11:04:03.265Z,4.10
2023-03-08T11:06:31.506Z,4.20
2023-03-08T11:09:00.829Z,4.20
2023-03-08T11:11:28.205Z,4.20
2023-03-08T11:13:55.902Z,4.30
2023-03-08T11:16:33.761Z,4.40
2023-03-08T11:19:25.956Z,4.40
2023-03-08T11:22:20.383Z,4.40
2023-03-08T11:25:11.596Z,4.50
2023-03-08T11:27:50.762Z,4.60
2023-03-08T11:30:24.417Z,4.60
2023-03-08T11:33:19.536Z,4.60
2023-03-08T11:36:00.029Z,4.60
2023-03-08T11:38:28.453Z,4.70
2023-03-08T11:41:27.256Z,4.70
2023-03-08T11:44:36.671Z,4.80
2023-03-08T11:47:45.393Z,4.80
2023-03-08T11:50:41.105Z,4.90
2023-03-08T11:53:19.508Z,4.80
2023-03-08T11:55:52.713Z,4.90
2023-03-08T11:58:58.527Z,4.90
2023-03-08T12:01:32.088Z,4.90
2023-03-08T12:04:10.018Z,4.90
2023-03-08T12:06:43.067Z,5.00
2023-03-08T12:09:31.146Z,5.00
2023-03-08T12:12:05.995Z,5.00
2023-03-08T12:14:37.728Z,5.00
2023-03-08T12:17:18.305Z,5.00
2023-03-08T12:19:51.176Z,5.10
2023-03-08T12:22:48.167Z,5.20
2023-03-08T12:25:18.224Z,5.20
2023-03-08T12:28:08.531Z,5.20
2023-03-08T12:31:01.009Z,5.20
2023-03-08T12:33:33.310Z,5.00
2023-03-08T12:36:07.497Z,5.00
2023-03-08T12:38:42.777Z,5.00
2023-03-08T12:41:39.708Z,5.10
2023-03-08T12:44:32.607Z,5.20
2023-03-08T12:47:23.292Z,5.30
2023-03-08T12:50:11.478Z,5.30
2023-03-08T12:52:38.953Z,5.30
2023-03-08T12:55:35.986Z,5.30
2023-03-08T12:58:04.960Z,5.30
2023-03-08T13:00:40.419Z,5.30
2023-03-08T13:03:36.349Z,5.30
2023-03-08T13:06:26.131Z,5.30
2023-03-08T13:09:03.525Z,5.30
2023-03-08T13:11:44.555Z,5.30
2023-03-08T13:14:38.364Z,5.30
2023-03-08T13:17:49.543Z,5.20
2023-03-08T13:20:43.743Z,5.20
2023-03-08T13:23:25.091Z,5.20
2023-03-08T13:26:19.969Z,5.10
2023-03-08T13:28:48.597Z,5.20
2023-03-08T13:31:29.902Z,5.20
2023-03-08T13:34:06.721Z,5.10
2023-03-08T13:36:34.519Z,5.00
2023-03-08T13:39:04.384Z,4.90
2023-03-08T13:41:43.227Z,4.90
2023-03-08T13:44:25.052Z,4.80
2023-03-08T13:46:55.442Z,4.80
2023-03-08T13:49:24.411Z,4.90
2023-03-08T13:51:54.149Z,5.00
2023-03-08T13:54:30.073Z,5.10
2023-03-08T13:57:07.748Z,5.00
2023-03-08T13:59:36.308Z,5.00
2023-03-08T14:02:04.177Z,5.10
2023-03-08T14:04:31.662Z,5.10
2023-03-08T14:07:01.375Z,5.20
2023-03-08T14:09:28.863Z,5.20
2023-03-08T14:12:07.458Z,5.20
2023-03-08T14:14:40.882Z,5.30
2023-03-08T14:17:19.682Z,5.30
2023-03-08T14:19:52.475Z,5.40
2023-03-08T14:22:36.128Z,5.40
2023-03-08T14:25:05.918Z,5.40
2023-03-08T14:27:41.858Z,5.40
2023-03-08T14:30:23.002Z,5.40
2023-03-08T14:33:30.663Z,5.40
2023-03-08T14:36:04.156Z,5.40
2023-03-08T14:38:33.245Z,5.50
2023-03-08T14:41:06.566Z,5.50
2023-03-08T14:43:34.202Z,5.50
2023-03-08T14:46:04.603Z,5.50
2023-03-08T14:48:36.748Z,5.50
2023-03-08T14:51:20.103Z,5.50
2023-03-08T14:54:29.778Z,5.50
2023-03-08T14:56:57.889Z,5.50
2023-03-08T14:59:27.984Z,5.50
2023-03-08T15:01:55.914Z,5.50
2023-03-08T15:04:25.056Z,5.50
2023-03-08T15:06:54.911Z,5.40
2023-03-08T15:09:23.121Z,5.40
2023-03-08T15:11:53.627Z,5.40
2023-03-08T15:14:20.960Z,5.30
2023-03-08T15:16:48.372Z,5.30
2023-03-08T15:19:15.637Z,5.20
2023-03-08T15:21:43.639Z,5.20
2023-03-08T15:24:17.735Z,5.20
2023-03-08T15:26:46.075Z,5.20
2023-03-08T15:29:31.967Z,5.10
2023-03-08T15:32:00.103Z,5.10
2023-03-08T15:34:28.428Z,5.00
2023-03-08T15:36:57.344Z,5.00
2023-03-08T15:39:24.962Z,5.00
2023-03-08T15:41:52.368Z,5.00
2023-03-08T15:44:19.588Z,5.10
2023-03-08T15:46:47.034Z,5.10
2023-03-08T15:49:14.425Z,5.10
2023-03-08T15:51:43.689Z,5.10
2023-03-08T15:54:11.708Z,5.00
2023-03-08T15:56:39.116Z,5.00
2023-03-08T15:59:06.377Z,4.90
2023-03-08T16:01:33.842Z,4.90
2023-03-08T16:04:01.249Z,4.90
2023-03-08T16:06:28.661Z,4.80
2023-03-08T16:08:56.627Z,4.80
2023-03-08T16:11:24.196Z,4.80
2023-03-08T16:13:53.103Z,4.70
2023-03-08T16:16:21.136Z,4.70
2023-03-08T16:18:49.110Z,4.70
2023-03-08T16:21:16.701Z,4.60
2023-03-08T16:23:44.081Z,4.60
2023-03-08T16:26:17.593Z,4.60
2023-03-08T16:28:47.054Z,4.60
2023-03-08T16:31:15.612Z,4.60
2023-03-08T16:33:43.046Z,4.60
2023-03-08T16:36:11.983Z,4.60
2023-03-08T16:38:39.408Z,4.60
2023-03-08T16:41:14.710Z,4.60
2023-03-08T16:43:47.995Z,4.50
2023-03-08T16:46:21.242Z,4.60
2023-03-08T16:48:50.360Z,4.50
2023-03-08T16:51:19.752Z,4.40
2023-03-08T16:53:47.936Z,4.40
2023-03-08T16:56:23.188Z,4.40
2023-03-08T16:58:50.519Z,4.40
2023-03-08T17:01:21.936Z,4.30
2023-03-08T17:03:49.838Z,4.30
2023-03-08T17:06:19.704Z,4.30
2023-03-08T17:08:47.309Z,4.30
2023-03-08T17:11:19.573Z,4.20
2023-03-08T17:13:52.374Z,4.20
2023-03-08T17:16:21.465Z,4.10
2023-03-08T17:18:49.922Z,4.10
2023-03-08T17:21:18.491Z,4.10
2023-03-08T17:23:49.201Z,4.10
2023-03-08T17:26:18.092Z,4.10
2023-03-08T17:28:45.424Z,4.10
2023-03-08T17:31:20.108Z,4.10
2023-03-08T17:33:49.368Z,4.10
2023-03-08T17:36:17.124Z,4.10
2023-03-08T17:38:44.554Z,4.10
2023-03-08T17:41:14.802Z,4.10
2023-03-08T17:43:42.351Z,4.10
2023-03-08T17:46:14.376Z,4.00
2023-03-08T17:48:42.623Z,4.00
2023-03-08T17:51:15.948Z,4.00
2023-03-08T17:53:45.599Z,4.00
2023-03-08T17:56:15.601Z,4.00
2023-03-08T17:58:44.110Z,3.90
2023-03-08T18:01:14.797Z,3.90
2023-03-08T18:03:42.523Z,3.90
2023-03-08T18:06:22.368Z,3.80
2023-03-08T18:08:49.732Z,3.80
2023-03-08T18:11:17.234Z,3.80
2023-03-08T18:13:44.632Z,3.80
2023-03-08T18:16:12.097Z,3.70
2023-03-08T18:18:39.427Z,3.70
2023-03-08T18:21:13.068Z,3.70
2023-03-08T18:23:42.896Z,3.70
2023-03-08T18:26:13.838Z,3.60
2023-03-08T18:28:41.337Z,3.60
2023-03-08T18:31:11.145Z,3.60
2023-03-08T18:33:38.889Z,3.50
2023-03-08T18:36:06.835Z,3.50
2023-03-08T18:38:35.934Z,3.50
2023-03-08T18:41:13.586Z,3.50
2023-03-08T18:43:41.140Z,3.50
2023-03-08T18:46:10.819Z,3.50
2023-03-08T18:48:38.375Z,3.40
2023-03-08T18:51:05.858Z,3.40
2023-03-08T18:53:33.732Z,3.30
2023-03-08T18:56:02.748Z,3.30
2023-03-08T18:58:30.069Z,3.30
2023-03-08T19:00:59.295Z,3.20
2023-03-08T19:03:30.885Z,3.20
2023-03-08T19:06:03.840Z,3.20
2023-03-08T19:08:32.292Z,3.10
2023-03-08T19:11:00.921Z,3.10
2023-03-08T19:13:28.308Z,3.00
2023-03-08T19:15:55.720Z,3.00
2023-03-08T19:18:23.705Z,2.90
2023-03-08T19:20:50.895Z,2.80
2023-03-08T19:23:18.157Z,2.80
2023-03-08T19:26:03.718Z,2.70
2023-03-08T19:28:30.900Z,2.70
2023-03-08T19:30:58.111Z,2.70
2023-03-08T19:33:31.007Z,2.70
2023-03-08T19:35:59.451Z,2.60
2023-03-08T19:38:26.712Z,2.60
2023-03-08T19:40:54.151Z,2.50
2023-03-08T19:43:23.648Z,2.40
2023-03-08T19:45:51.025Z,2.40
2023-03-08T19:48:18.184Z,2.40
2023-03-08T19:50:48.959Z,2.40
2023-03-08T19:53:16.425Z,2.40
2023-03-08T19:55:54.399Z,2.40
2023-03-08T19:58:22.615Z,2.40
2023-03-08T20:00:50.165Z,2.40
2023-03-08T20:03:18.111Z,2.40
2023-03-08T20:05:47.847Z,2.40
2023-03-08T20:08:15.658Z,2.40
2023-03-08T20:10:42.965Z,2.40
2023-03-08T20:13:10.275Z,2.40
2023-03-08T20:15:37.403Z,2.30
2023-03-08T20:18:04.713Z,2.30
2023-03-08T20:20:32.108Z,2.30
2023-03-08T20:22:59.626Z,2.30
2023-03-08T20:25:28.435Z,2.20
2023-03-08T20:27:55.839Z,2.20
2023-03-08T20:30:23.151Z,2.20
2023-03-08T20:32:50.390Z,2.10
2023-03-08T20:35:17.833Z,2.10
2023-03-08T20:37:45.236Z,2.00
2023-03-08T20:40:13.854Z,2.00
2023-03-08T20:42:41.036Z,2.10
2023-03-08T20:45:08.666Z,2.10
2023-03-08T20:47:36.158Z,2.00
2023-03-08T20:50:06.075Z,2.10
2023-03-08T20:52:33.269Z,2.10
2023-03-08T20:55:00.392Z,2.10
2023-03-08T20:57:27.753Z,2.10
2023-03-08T20:59:55.132Z,2.10
2023-03-08T21:02:22.508Z,2.10
2023-03-08T21:04:49.752Z,2.10
2023-03-08T21:07:17.021Z,2.10
2023-03-08T21:09:44.720Z,2.00
2023-03-08T21:12:12.010Z,2.00
2023-03-08T21:14:39.232Z,2.00
2023-03-08T21:17:06.569Z,2.00
2023-03-08T21:19:33.906Z,2.00
2023-03-08T21:22:01.647Z,2.00
2023-03-08T21:24:29.236Z,2.00
2023-03-08T21:26:56.524Z,1.90
2023-03-08T21:29:23.906Z,1.90
2023-03-08T21:31:53.110Z,1.90
2023-03-08T21:34:20.820Z,1.90
2023-03-08T21:36:48.004Z,1.80
2023-03-08T21:39:15.852Z,1.80
2023-03-08T21:41:47.248Z,1.80
2023-03-08T21:44:17.314Z,1.80
2023-03-08T21:46:44.908Z,1.80
2023-03-08T21:49:22.076Z,1.80
2023-03-08T21:51:49.257Z,1.90
2023-03-08T21:54:19.357Z,1.90
2023-03-08T21:56:47.888Z,1.80
2023-03-08T21:59:16.909Z,1.80
2023-03-08T22:01:50.305Z,1.80
2023-03-08T22:04:18.314Z,1.70
2023-03-08T22:06:46.543Z,1.70
2023-03-08T22:09:13.792Z,1.70
2023-03-08T22:11:41.220Z,1.60
2023-03-08T22:14:08.281Z,1.60
2023-03-08T22:16:40.250Z,1.60
2023-03-08T22:19:07.315Z,1.60
2023-03-08T22:21:34.544Z,1.60
2023-03-08T22:24:03.465Z,1.60
2023-03-08T22:26:31.639Z,1.60
2023-03-08T22:28:59.562Z,1.50
2023-03-08T22:31:29.324Z,1.50
2023-03-08T22:33:57.640Z,1.50
2023-03-08T22:36:25.590Z,1.50
2023-03-08T22:38:52.837Z,1.50
2023-03-08T22:41:25.620Z,1.50
2023-03-08T22:43:53.470Z,1.50
2023-03-08T22:46:23.643Z,1.50
2023-03-08T22:48:51.876Z,1.50
2023-03-08T22:51:23.082Z,1.50
2023-03-08T22:53:50.731Z,1.50
2023-03-08T22:56:33.333Z,1.50
2023-03-08T22:59:03.525Z,1.50
2023-03-08T23:01:32.781Z,1.50
2023-03-08T23:04:01.243Z,1.50
2023-03-08T23:06:30.325Z,1.50
2023-03-08T23:09:04.656Z,1.50
2023-03-08T23:11:32.288Z,1.50
2023-03-08T23:14:00.060Z,1.50
2023-03-08T23:16:27.839Z,1.50
2023-03-08T23:18:55.737Z,1.50
2023-03-08T23:21:24.844Z,1.50
2023-03-08T23:23:52.156Z,1.50
2023-03-08T23:26:27.096Z,1.50
2023-03-08T23:28:58.073Z,1.50
2023-03-08T23:31:28.468Z,1.50
2023-03-08T23:33:58.023Z,1.50
2023-03-08T23:36:27.259Z,1.40
2023-03-08T23:38:55.398Z,1.40
2023-03-08T23:41:22.577Z,1.40
2023-03-08T23:43:53.151Z,1.40
2023-03-08T23:46:21.405Z,1.40
2023-03-08T23:48:49.656Z,1.40
2023-03-08T23:51:19.472Z,1.40
2023-03-08T23:53:51.636Z,1.40
2023-03-08T23:56:27.065Z,1.40
2023-03-08T23:59:02.758Z,1.40
